CheckWX is a tool to help pilots better visualize weather data.  It is not intended as a substitute for an official pre-flight weather briefing.

11:56:48 UTC

GQPP METAR
Nouadhibou International Airport
Nouadhibou, Mauritania
Current

57 mins ago

GQPP 161100Z 04013KT 6000 DRSA NSC 27/20 Q1016 NOSIG
Observed
Oct-16 @ 11:00 UTC
Wind
  • 040° at 13 KTS
Visibility
6,000 meters
Flight Rules
MVFR
Conditions
Low drifting Sand
Cloud Levels
  • Clear skies
Temperature
27°C / 81°F
Dewpoint
20°C / 68°F
Heat Index
29°C / 84°F
Humidity
66%
Altimeter
30" Hg
Pressure
1015.92 hPa
Previous

2 hours ago

GQPP 161000Z 03015KT 6000 DRSA NSC 25/20 Q1016 NOSIG
Observed
Oct-16 @ 10:00 UTC
Wind
  • 030° at 15 KTS
Visibility
6,000 meters
Flight Rules
MVFR
Conditions
Low drifting Sand
Cloud Levels
  • Clear skies
Temperature
25°C / 77°F
Dewpoint
20°C / 68°F
Humidity
74%
Altimeter
30" Hg
Pressure
1015.92 hPa
Previous

3 hours ago

GQPP 160900Z 02012KT 7000 NSC 24/20 Q1016 NOSIG
Observed
Oct-16 @ 09:00 UTC
Wind
  • 020° at 12 KTS
Visibility
7,000 meters
Flight Rules
MVFR
Cloud Levels
  • Clear skies
Temperature
24°C / 75°F
Dewpoint
20°C / 68°F
Humidity
78%
Altimeter
30" Hg
Pressure
1015.92 hPa